sensor_id;sensor_type;location;lat;lon;timestamp;temperature;humidity
60313;DHT22;46158;52.850;6.970;2023-12-20T00:00:08;15.60;81.30
60313;DHT22;46158;52.850;6.970;2023-12-20T00:02:34;15.60;81.40
60313;DHT22;46158;52.850;6.970;2023-12-20T00:05:00;15.60;81.30
60313;DHT22;46158;52.850;6.970;2023-12-20T00:07:25;15.60;81.30
60313;DHT22;46158;52.850;6.970;2023-12-20T00:09:51;15.50;81.90
60313;DHT22;46158;52.850;6.970;2023-12-20T00:12:16;15.60;81.20
60313;DHT22;46158;52.850;6.970;2023-12-20T00:14:42;15.50;81.10
60313;DHT22;46158;52.850;6.970;2023-12-20T00:17:08;15.50;81.10
60313;DHT22;46158;52.850;6.970;2023-12-20T00:19:33;15.50;81.20
60313;DHT22;46158;52.850;6.970;2023-12-20T00:21:59;15.50;81.20
60313;DHT22;46158;52.850;6.970;2023-12-20T00:24:25;15.50;81.10
60313;DHT22;46158;52.850;6.970;2023-12-20T00:26:51;15.40;81.10
60313;DHT22;46158;52.850;6.970;2023-12-20T00:29:16;15.50;81.20
60313;DHT22;46158;52.850;6.970;2023-12-20T00:31:42;15.40;81.20
60313;DHT22;46158;52.850;6.970;2023-12-20T00:34:07;15.40;81.20
60313;DHT22;46158;52.850;6.970;2023-12-20T00:36:33;15.40;81.20
60313;DHT22;46158;52.850;6.970;2023-12-20T00:38:59;15.40;81.20
60313;DHT22;46158;52.850;6.970;2023-12-20T00:41:24;15.30;81.10
60313;DHT22;46158;52.850;6.970;2023-12-20T00:43:50;15.40;81.40
60313;DHT22;46158;52.850;6.970;2023-12-20T00:46:16;15.40;81.20
60313;DHT22;46158;52.850;6.970;2023-12-20T00:48:41;15.30;81.10
60313;DHT22;46158;52.850;6.970;2023-12-20T00:51:07;15.30;81.10
60313;DHT22;46158;52.850;6.970;2023-12-20T00:53:33;15.30;81.10
60313;DHT22;46158;52.850;6.970;2023-12-20T00:55:59;15.30;81.10
60313;DHT22;46158;52.850;6.970;2023-12-20T00:58:25;15.30;81.10
60313;DHT22;46158;52.850;6.970;2023-12-20T01:00:51;15.20;81.10
60313;DHT22;46158;52.850;6.970;2023-12-20T01:03:16;15.20;81.10
60313;DHT22;46158;52.850;6.970;2023-12-20T01:05:42;15.20;81.10
60313;DHT22;46158;52.850;6.970;2023-12-20T01:08:07;15.20;81.10
60313;DHT22;46158;52.850;6.970;2023-12-20T01:10:33;15.20;81.10
60313;DHT22;46158;52.850;6.970;2023-12-20T01:12:58;15.20;81.10
60313;DHT22;46158;52.850;6.970;2023-12-20T01:15:24;15.20;81.10
60313;DHT22;46158;52.850;6.970;2023-12-20T01:17:50;15.20;81.10
60313;DHT22;46158;52.850;6.970;2023-12-20T01:20:15;15.20;81.10
60313;DHT22;46158;52.850;6.970;2023-12-20T01:22:41;15.10;81.10
60313;DHT22;46158;52.850;6.970;2023-12-20T01:25:08;15.10;81.10
60313;DHT22;46158;52.850;6.970;2023-12-20T01:27:34;15.10;81.00
60313;DHT22;46158;52.850;6.970;2023-12-20T01:29:59;15.10;81.00
60313;DHT22;46158;52.850;6.970;2023-12-20T01:32:25;15.00;81.00
60313;DHT22;46158;52.850;6.970;2023-12-20T01:34:50;15.10;81.00
60313;DHT22;46158;52.850;6.970;2023-12-20T01:37:16;15.00;81.00
60313;DHT22;46158;52.850;6.970;2023-12-20T01:39:42;15.00;80.90
60313;DHT22;46158;52.850;6.970;2023-12-20T01:42:07;15.00;80.90
60313;DHT22;46158;52.850;6.970;2023-12-20T01:44:33;15.00;81.00
60313;DHT22;46158;52.850;6.970;2023-12-20T01:47:00;15.00;80.90
60313;DHT22;46158;52.850;6.970;2023-12-20T01:49:25;15.00;80.90
60313;DHT22;46158;52.850;6.970;2023-12-20T01:51:51;15.00;81.60
60313;DHT22;46158;52.850;6.970;2023-12-20T01:54:17;15.00;80.90
60313;DHT22;46158;52.850;6.970;2023-12-20T01:56:44;14.90;80.80
60313;DHT22;46158;52.850;6.970;2023-12-20T01:59:10;14.90;80.70
60313;DHT22;46158;52.850;6.970;2023-12-20T02:01:36;14.90;80.70
60313;DHT22;46158;52.850;6.970;2023-12-20T02:04:02;14.90;80.70
60313;DHT22;46158;52.850;6.970;2023-12-20T02:06:30;14.90;80.70
60313;DHT22;46158;52.850;6.970;2023-12-20T02:08:57;14.90;80.70
60313;DHT22;46158;52.850;6.970;2023-12-20T02:11:24;14.90;80.70
60313;DHT22;46158;52.850;6.970;2023-12-20T02:13:50;14.90;80.70
60313;DHT22;46158;52.850;6.970;2023-12-20T02:16:16;14.80;80.60
60313;DHT22;46158;52.850;6.970;2023-12-20T02:18:43;14.80;80.60
60313;DHT22;46158;52.850;6.970;2023-12-20T02:21:09;14.80;80.50
60313;DHT22;46158;52.850;6.970;2023-12-20T02:23:35;14.80;80.50
60313;DHT22;46158;52.850;6.970;2023-12-20T02:26:01;14.80;80.50
60313;DHT22;46158;52.850;6.970;2023-12-20T02:28:28;14.80;80.50
60313;DHT22;46158;52.850;6.970;2023-12-20T02:30:53;14.80;80.50
60313;DHT22;46158;52.850;6.970;2023-12-20T02:33:19;14.70;80.40
60313;DHT22;46158;52.850;6.970;2023-12-20T02:35:44;14.70;80.40
60313;DHT22;46158;52.850;6.970;2023-12-20T02:38:10;14.70;80.40
60313;DHT22;46158;52.850;6.970;2023-12-20T02:40:36;14.70;80.40
60313;DHT22;46158;52.850;6.970;2023-12-20T02:43:01;14.70;80.30
60313;DHT22;46158;52.850;6.970;2023-12-20T02:45:27;14.70;80.30
60313;DHT22;46158;52.850;6.970;2023-12-20T02:47:53;14.70;80.30
60313;DHT22;46158;52.850;6.970;2023-12-20T02:50:18;14.70;80.30
60313;DHT22;46158;52.850;6.970;2023-12-20T02:52:45;14.60;80.30
60313;DHT22;46158;52.850;6.970;2023-12-20T02:55:11;14.60;80.20
60313;DHT22;46158;52.850;6.970;2023-12-20T02:57:36;14.60;80.30
60313;DHT22;46158;52.850;6.970;2023-12-20T03:00:10;14.60;80.20
60313;DHT22;46158;52.850;6.970;2023-12-20T03:02:36;14.60;80.20
60313;DHT22;46158;52.850;6.970;2023-12-20T03:05:02;14.60;80.20
60313;DHT22;46158;52.850;6.970;2023-12-20T03:07:28;14.60;80.20
60313;DHT22;46158;52.850;6.970;2023-12-20T03:09:54;14.60;80.20
60313;DHT22;46158;52.850;6.970;2023-12-20T03:12:19;14.60;80.20
60313;DHT22;46158;52.850;6.970;2023-12-20T03:14:45;14.50;80.10
60313;DHT22;46158;52.850;6.970;2023-12-20T03:17:11;14.50;80.10
60313;DHT22;46158;52.850;6.970;2023-12-20T03:19:36;14.50;80.10
60313;DHT22;46158;52.850;6.970;2023-12-20T03:22:02;14.50;80.10
60313;DHT22;46158;52.850;6.970;2023-12-20T03:24:28;14.50;80.10
60313;DHT22;46158;52.850;6.970;2023-12-20T03:26:53;14.50;80.10
60313;DHT22;46158;52.850;6.970;2023-12-20T03:29:19;14.50;80.10
60313;DHT22;46158;52.850;6.970;2023-12-20T03:31:45;14.50;80.10
60313;DHT22;46158;52.850;6.970;2023-12-20T03:34:11;14.50;80.00
60313;DHT22;46158;52.850;6.970;2023-12-20T03:36:37;14.50;80.00
60313;DHT22;46158;52.850;6.970;2023-12-20T03:39:03;14.40;80.00
60313;DHT22;46158;52.850;6.970;2023-12-20T03:41:28;14.40;79.90
60313;DHT22;46158;52.850;6.970;2023-12-20T03:43:54;14.40;80.00
60313;DHT22;46158;52.850;6.970;2023-12-20T03:46:20;14.40;79.90
60313;DHT22;46158;52.850;6.970;2023-12-20T03:48:45;14.40;80.00
60313;DHT22;46158;52.850;6.970;2023-12-20T03:51:11;14.40;79.90
60313;DHT22;46158;52.850;6.970;2023-12-20T03:53:37;14.40;79.90
60313;DHT22;46158;52.850;6.970;2023-12-20T03:56:03;14.40;79.90
60313;DHT22;46158;52.850;6.970;2023-12-20T03:58:29;14.30;79.80
60313;DHT22;46158;52.850;6.970;2023-12-20T04:00:54;14.30;79.80
60313;DHT22;46158;52.850;6.970;2023-12-20T04:03:20;14.30;79.80
60313;DHT22;46158;52.850;6.970;2023-12-20T04:05:46;14.30;79.80
60313;DHT22;46158;52.850;6.970;2023-12-20T04:08:11;14.30;79.80
60313;DHT22;46158;52.850;6.970;2023-12-20T04:10:37;14.30;79.80
60313;DHT22;46158;52.850;6.970;2023-12-20T04:13:03;14.30;79.90
60313;DHT22;46158;52.850;6.970;2023-12-20T04:15:29;14.30;79.80
60313;DHT22;46158;52.850;6.970;2023-12-20T04:17:55;14.30;79.90
60313;DHT22;46158;52.850;6.970;2023-12-20T04:20:20;14.30;79.80
60313;DHT22;46158;52.850;6.970;2023-12-20T04:22:47;14.20;79.70
60313;DHT22;46158;52.850;6.970;2023-12-20T04:25:12;14.30;79.70
60313;DHT22;46158;52.850;6.970;2023-12-20T04:27:38;14.30;79.70
60313;DHT22;46158;52.850;6.970;2023-12-20T04:30:04;14.20;79.60
60313;DHT22;46158;52.850;6.970;2023-12-20T04:32:30;14.30;79.70
60313;DHT22;46158;52.850;6.970;2023-12-20T04:34:55;14.20;79.60
60313;DHT22;46158;52.850;6.970;2023-12-20T04:37:21;14.20;79.60
60313;DHT22;46158;52.850;6.970;2023-12-20T04:39:46;14.20;79.60
60313;DHT22;46158;52.850;6.970;2023-12-20T04:42:12;14.10;79.50
60313;DHT22;46158;52.850;6.970;2023-12-20T04:44:38;14.20;79.50
60313;DHT22;46158;52.850;6.970;2023-12-20T04:47:03;14.10;79.40
60313;DHT22;46158;52.850;6.970;2023-12-20T04:49:29;14.20;79.50
60313;DHT22;46158;52.850;6.970;2023-12-20T04:51:55;14.20;79.50
60313;DHT22;46158;52.850;6.970;2023-12-20T04:54:21;14.20;79.50
60313;DHT22;46158;52.850;6.970;2023-12-20T04:56:47;14.10;79.40
60313;DHT22;46158;52.850;6.970;2023-12-20T04:59:12;14.10;79.40
60313;DHT22;46158;52.850;6.970;2023-12-20T05:01:38;14.10;79.40
60313;DHT22;46158;52.850;6.970;2023-12-20T05:04:04;14.10;79.40
60313;DHT22;46158;52.850;6.970;2023-12-20T05:06:30;14.10;79.40
60313;DHT22;46158;52.850;6.970;2023-12-20T05:08:55;14.10;79.40
60313;DHT22;46158;52.850;6.970;2023-12-20T05:11:21;14.00;79.40
60313;DHT22;46158;52.850;6.970;2023-12-20T05:13:47;14.10;79.30
60313;DHT22;46158;52.850;6.970;2023-12-20T05:16:12;14.00;79.40
60313;DHT22;46158;52.850;6.970;2023-12-20T05:18:40;14.00;79.30
60313;DHT22;46158;52.850;6.970;2023-12-20T05:21:05;14.00;79.20
60313;DHT22;46158;52.850;6.970;2023-12-20T05:23:31;14.00;79.20
60313;DHT22;46158;52.850;6.970;2023-12-20T05:25:57;14.00;79.30
60313;DHT22;46158;52.850;6.970;2023-12-20T05:28:24;14.00;79.30
60313;DHT22;46158;52.850;6.970;2023-12-20T05:30:50;14.00;79.20
60313;DHT22;46158;52.850;6.970;2023-12-20T05:33:15;14.00;79.20
60313;DHT22;46158;52.850;6.970;2023-12-20T05:35:41;14.00;79.20
60313;DHT22;46158;52.850;6.970;2023-12-20T05:38:06;14.00;79.20
60313;DHT22;46158;52.850;6.970;2023-12-20T05:40:32;14.00;79.10
60313;DHT22;46158;52.850;6.970;2023-12-20T05:42:58;14.00;79.20
60313;DHT22;46158;52.850;6.970;2023-12-20T05:45:23;13.90;79.10
60313;DHT22;46158;52.850;6.970;2023-12-20T05:47:55;13.90;79.10
60313;DHT22;46158;52.850;6.970;2023-12-20T05:50:21;13.90;79.00
60313;DHT22;46158;52.850;6.970;2023-12-20T05:52:46;13.90;79.00
60313;DHT22;46158;52.850;6.970;2023-12-20T05:55:12;13.90;79.00
60313;DHT22;46158;52.850;6.970;2023-12-20T05:57:37;13.90;78.90
60313;DHT22;46158;52.850;6.970;2023-12-20T06:00:03;13.90;78.90
60313;DHT22;46158;52.850;6.970;2023-12-20T06:02:29;13.90;78.80
60313;DHT22;46158;52.850;6.970;2023-12-20T06:04:55;13.90;78.80
60313;DHT22;46158;52.850;6.970;2023-12-20T06:07:21;13.90;78.80
60313;DHT22;46158;52.850;6.970;2023-12-20T06:09:46;13.90;78.70
60313;DHT22;46158;52.850;6.970;2023-12-20T06:12:12;13.90;78.80
60313;DHT22;46158;52.850;6.970;2023-12-20T06:14:38;13.90;78.70
60313;DHT22;46158;52.850;6.970;2023-12-20T06:17:03;13.80;78.60
60313;DHT22;46158;52.850;6.970;2023-12-20T06:19:29;13.90;78.70
60313;DHT22;46158;52.850;6.970;2023-12-20T06:21:55;13.80;78.60
60313;DHT22;46158;52.850;6.970;2023-12-20T06:24:20;13.80;78.60
60313;DHT22;46158;52.850;6.970;2023-12-20T06:26:46;13.80;78.70
60313;DHT22;46158;52.850;6.970;2023-12-20T06:29:12;13.80;78.60
60313;DHT22;46158;52.850;6.970;2023-12-20T06:31:38;13.80;78.60
60313;DHT22;46158;52.850;6.970;2023-12-20T06:34:06;13.80;78.60
60313;DHT22;46158;52.850;6.970;2023-12-20T06:36:31;13.80;78.60
60313;DHT22;46158;52.850;6.970;2023-12-20T06:38:57;13.80;78.50
60313;DHT22;46158;52.850;6.970;2023-12-20T06:41:23;13.80;78.60
60313;DHT22;46158;52.850;6.970;2023-12-20T06:43:50;13.80;78.50
60313;DHT22;46158;52.850;6.970;2023-12-20T06:46:16;13.80;78.60
60313;DHT22;46158;52.850;6.970;2023-12-20T06:48:42;13.80;78.60
60313;DHT22;46158;52.850;6.970;2023-12-20T06:51:12;13.80;78.60
60313;DHT22;46158;52.850;6.970;2023-12-20T06:53:37;13.80;78.70
60313;DHT22;46158;52.850;6.970;2023-12-20T06:56:03;13.80;78.80
60313;DHT22;46158;52.850;6.970;2023-12-20T06:58:29;13.80;78.80
60313;DHT22;46158;52.850;6.970;2023-12-20T07:00:54;13.80;78.80
60313;DHT22;46158;52.850;6.970;2023-12-20T07:03:20;13.90;78.90
60313;DHT22;46158;52.850;6.970;2023-12-20T07:05:46;13.80;78.90
60313;DHT22;46158;52.850;6.970;2023-12-20T07:08:11;13.90;79.00
60313;DHT22;46158;52.850;6.970;2023-12-20T07:10:39;13.90;79.00
60313;DHT22;46158;52.850;6.970;2023-12-20T07:13:05;13.90;79.20
60313;DHT22;46158;52.850;6.970;2023-12-20T07:15:31;13.90;79.20
60313;DHT22;46158;52.850;6.970;2023-12-20T07:17:57;13.90;79.20
60313;DHT22;46158;52.850;6.970;2023-12-20T07:20:25;13.90;79.20
60313;DHT22;46158;52.850;6.970;2023-12-20T07:22:51;13.90;79.30
60313;DHT22;46158;52.850;6.970;2023-12-20T07:25:16;13.90;79.30
60313;DHT22;46158;52.850;6.970;2023-12-20T07:27:42;13.90;79.40
60313;DHT22;46158;52.850;6.970;2023-12-20T07:30:08;13.90;79.40
60313;DHT22;46158;52.850;6.970;2023-12-20T07:32:34;13.90;79.50
60313;DHT22;46158;52.850;6.970;2023-12-20T07:34:59;13.90;79.50
60313;DHT22;46158;52.850;6.970;2023-12-20T07:37:25;13.90;79.60
60313;DHT22;46158;52.850;6.970;2023-12-20T07:39:51;13.90;79.70
60313;DHT22;46158;52.850;6.970;2023-12-20T07:42:16;14.00;79.70
60313;DHT22;46158;52.850;6.970;2023-12-20T07:44:42;14.00;79.90
60313;DHT22;46158;52.850;6.970;2023-12-20T07:47:07;14.00;80.10
60313;DHT22;46158;52.850;6.970;2023-12-20T07:49:33;14.00;80.20
60313;DHT22;46158;52.850;6.970;2023-12-20T07:51:59;14.10;80.30
60313;DHT22;46158;52.850;6.970;2023-12-20T07:54:25;14.10;80.50
60313;DHT22;46158;52.850;6.970;2023-12-20T07:56:50;14.10;80.50
60313;DHT22;46158;52.850;6.970;2023-12-20T07:59:16;14.10;80.60
60313;DHT22;46158;52.850;6.970;2023-12-20T08:01:42;14.30;80.60
60313;DHT22;46158;52.850;6.970;2023-12-20T08:04:08;14.40;80.50
60313;DHT22;46158;52.850;6.970;2023-12-20T08:06:36;14.40;81.30
60313;DHT22;46158;52.850;6.970;2023-12-20T08:09:01;14.50;80.90
60313;DHT22;46158;52.850;6.970;2023-12-20T08:11:27;14.50;81.00
60313;DHT22;46158;52.850;6.970;2023-12-20T08:13:53;14.50;81.30
60313;DHT22;46158;52.850;6.970;2023-12-20T08:16:18;14.60;81.30
60313;DHT22;46158;52.850;6.970;2023-12-20T08:18:44;14.60;81.40
60313;DHT22;46158;52.850;6.970;2023-12-20T08:21:10;14.60;81.40
60313;DHT22;46158;52.850;6.970;2023-12-20T08:23:37;14.60;81.40
60313;DHT22;46158;52.850;6.970;2023-12-20T08:26:07;14.70;81.40
60313;DHT22;46158;52.850;6.970;2023-12-20T08:28:33;14.70;81.30
60313;DHT22;46158;52.850;6.970;2023-12-20T08:31:00;14.80;81.40
60313;DHT22;46158;52.850;6.970;2023-12-20T08:33:25;14.80;81.30
60313;DHT22;46158;52.850;6.970;2023-12-20T08:35:51;14.80;81.10
60313;DHT22;46158;52.850;6.970;2023-12-20T08:38:16;14.90;81.10
60313;DHT22;46158;52.850;6.970;2023-12-20T08:40:43;14.90;81.10
60313;DHT22;46158;52.850;6.970;2023-12-20T08:43:09;14.90;81.10
60313;DHT22;46158;52.850;6.970;2023-12-20T08:45:36;15.00;81.30
60313;DHT22;46158;52.850;6.970;2023-12-20T08:48:02;15.00;81.40
60313;DHT22;46158;52.850;6.970;2023-12-20T08:50:32;15.00;81.60
60313;DHT22;46158;52.850;6.970;2023-12-20T08:52:58;15.00;81.80
60313;DHT22;46158;52.850;6.970;2023-12-20T08:55:23;15.10;82.00
60313;DHT22;46158;52.850;6.970;2023-12-20T08:57:49;15.00;81.90
60313;DHT22;46158;52.850;6.970;2023-12-20T09:00:16;15.10;81.90
60313;DHT22;46158;52.850;6.970;2023-12-20T09:02:42;15.10;81.90
60313;DHT22;46158;52.850;6.970;2023-12-20T09:05:07;15.10;81.90
60313;DHT22;46158;52.850;6.970;2023-12-20T09:07:34;15.10;81.90
60313;DHT22;46158;52.850;6.970;2023-12-20T09:09:59;15.20;82.00
60313;DHT22;46158;52.850;6.970;2023-12-20T09:12:25;15.10;82.00
60313;DHT22;46158;52.850;6.970;2023-12-20T09:14:51;15.20;82.10
60313;DHT22;46158;52.850;6.970;2023-12-20T09:17:18;15.20;82.10
60313;DHT22;46158;52.850;6.970;2023-12-20T09:19:44;15.20;82.10
60313;DHT22;46158;52.850;6.970;2023-12-20T09:22:11;15.20;82.20
60313;DHT22;46158;52.850;6.970;2023-12-20T09:24:37;15.20;82.20
60313;DHT22;46158;52.850;6.970;2023-12-20T09:27:04;15.20;82.30
60313;DHT22;46158;52.850;6.970;2023-12-20T09:29:31;15.20;82.30
60313;DHT22;46158;52.850;6.970;2023-12-20T09:31:56;15.20;82.30
60313;DHT22;46158;52.850;6.970;2023-12-20T09:34:23;15.30;82.40
60313;DHT22;46158;52.850;6.970;2023-12-20T09:36:48;15.30;82.40
60313;DHT22;46158;52.850;6.970;2023-12-20T09:39:14;15.30;82.50
60313;DHT22;46158;52.850;6.970;2023-12-20T09:41:44;15.30;82.50
60313;DHT22;46158;52.850;6.970;2023-12-20T09:44:16;15.30;82.40
60313;DHT22;46158;52.850;6.970;2023-12-20T09:46:45;15.30;82.40
60313;DHT22;46158;52.850;6.970;2023-12-20T09:49:16;15.30;82.40
60313;DHT22;46158;52.850;6.970;2023-12-20T09:51:42;15.40;82.40
60313;DHT22;46158;52.850;6.970;2023-12-20T09:54:08;15.30;82.30
60313;DHT22;46158;52.850;6.970;2023-12-20T09:56:35;15.40;82.40
60313;DHT22;46158;52.850;6.970;2023-12-20T09:59:02;15.40;82.40
60313;DHT22;46158;52.850;6.970;2023-12-20T10:01:28;15.40;82.30
60313;DHT22;46158;52.850;6.970;2023-12-20T10:03:54;15.40;82.40
60313;DHT22;46158;52.850;6.970;2023-12-20T10:06:22;15.30;82.40
60313;DHT22;46158;52.850;6.970;2023-12-20T10:08:48;15.40;82.50
60313;DHT22;46158;52.850;6.970;2023-12-20T10:11:14;15.40;82.70
60313;DHT22;46158;52.850;6.970;2023-12-20T10:13:41;15.40;82.70
60313;DHT22;46158;52.850;6.970;2023-12-20T10:16:07;15.40;82.80
60313;DHT22;46158;52.850;6.970;2023-12-20T10:18:35;15.40;82.80
60313;DHT22;46158;52.850;6.970;2023-12-20T10:21:01;15.40;82.80
60313;DHT22;46158;52.850;6.970;2023-12-20T10:23:28;15.40;82.80
60313;DHT22;46158;52.850;6.970;2023-12-20T10:25:58;15.40;82.80
60313;DHT22;46158;52.850;6.970;2023-12-20T10:28:24;15.40;82.80
60313;DHT22;46158;52.850;6.970;2023-12-20T10:30:54;15.40;82.80
60313;DHT22;46158;52.850;6.970;2023-12-20T10:33:30;15.40;81.80
60313;DHT22;46158;52.850;6.970;2023-12-20T10:35:57;15.40;81.40
60313;DHT22;46158;52.850;6.970;2023-12-20T10:38:23;15.40;82.10
60313;DHT22;46158;52.850;6.970;2023-12-20T10:40:54;15.40;82.70
60313;DHT22;46158;52.850;6.970;2023-12-20T10:43:20;15.40;83.00
60313;DHT22;46158;52.850;6.970;2023-12-20T10:45:46;15.40;83.00
60313;DHT22;46158;52.850;6.970;2023-12-20T10:48:11;15.50;83.20
60313;DHT22;46158;52.850;6.970;2023-12-20T10:50:38;15.50;83.20
60313;DHT22;46158;52.850;6.970;2023-12-20T10:53:04;15.50;83.30
60313;DHT22;46158;52.850;6.970;2023-12-20T10:55:30;15.50;83.30
60313;DHT22;46158;52.850;6.970;2023-12-20T10:58:01;15.50;83.30
60313;DHT22;46158;52.850;6.970;2023-12-20T11:00:29;15.50;83.30
60313;DHT22;46158;52.850;6.970;2023-12-20T11:03:01;15.50;83.60
60313;DHT22;46158;52.850;6.970;2023-12-20T11:05:50;15.50;83.80
60313;DHT22;46158;52.850;6.970;2023-12-20T11:14:08;15.60;84.20
60313;DHT22;46158;52.850;6.970;2023-12-20T11:16:38;15.50;84.40
60313;DHT22;46158;52.850;6.970;2023-12-20T11:19:06;15.60;85.20
60313;DHT22;46158;52.850;6.970;2023-12-20T11:21:32;15.60;84.60
60313;DHT22;46158;52.850;6.970;2023-12-20T11:23:59;15.60;84.60
60313;DHT22;46158;52.850;6.970;2023-12-20T11:26:28;15.60;84.60
60313;DHT22;46158;52.850;6.970;2023-12-20T11:28:54;15.60;84.80
60313;DHT22;46158;52.850;6.970;2023-12-20T11:31:40;15.60;84.70
60313;DHT22;46158;52.850;6.970;2023-12-20T11:34:13;15.60;84.70
60313;DHT22;46158;52.850;6.970;2023-12-20T11:36:40;15.60;84.70
60313;DHT22;46158;52.850;6.970;2023-12-20T11:39:05;15.60;84.70
60313;DHT22;46158;52.850;6.970;2023-12-20T11:41:34;15.60;84.70
60313;DHT22;46158;52.850;6.970;2023-12-20T11:44:00;15.70;84.80
60313;DHT22;46158;52.850;6.970;2023-12-20T11:46:26;15.60;84.70
60313;DHT22;46158;52.850;6.970;2023-12-20T11:48:52;15.70;84.80
60313;DHT22;46158;52.850;6.970;2023-12-20T11:51:17;15.70;84.70
60313;DHT22;46158;52.850;6.970;2023-12-20T11:53:43;15.70;84.70
60313;DHT22;46158;52.850;6.970;2023-12-20T11:56:09;15.70;84.70
60313;DHT22;46158;52.850;6.970;2023-12-20T11:58:35;15.70;84.70
60313;DHT22;46158;52.850;6.970;2023-12-20T12:01:01;15.70;84.50
60313;DHT22;46158;52.850;6.970;2023-12-20T12:03:32;15.70;84.40
60313;DHT22;46158;52.850;6.970;2023-12-20T12:05:58;15.70;84.20
60313;DHT22;46158;52.850;6.970;2023-12-20T12:08:23;15.70;84.00
60313;DHT22;46158;52.850;6.970;2023-12-20T12:10:49;15.70;83.80
60313;DHT22;46158;52.850;6.970;2023-12-20T12:13:15;15.70;83.80
60313;DHT22;46158;52.850;6.970;2023-12-20T12:15:41;15.70;83.70
60313;DHT22;46158;52.850;6.970;2023-12-20T12:18:07;15.70;83.60
60313;DHT22;46158;52.850;6.970;2023-12-20T12:20:33;15.70;83.60
60313;DHT22;46158;52.850;6.970;2023-12-20T12:23:05;15.70;83.50
60313;DHT22;46158;52.850;6.970;2023-12-20T12:25:33;15.70;83.40
60313;DHT22;46158;52.850;6.970;2023-12-20T12:28:00;15.70;83.40
60313;DHT22;46158;52.850;6.970;2023-12-20T12:30:26;15.70;83.40
60313;DHT22;46158;52.850;6.970;2023-12-20T12:32:52;15.70;83.40
60313;DHT22;46158;52.850;6.970;2023-12-20T12:35:18;15.70;83.40
60313;DHT22;46158;52.850;6.970;2023-12-20T12:37:45;15.70;83.30
60313;DHT22;46158;52.850;6.970;2023-12-20T12:40:12;15.70;83.30
60313;DHT22;46158;52.850;6.970;2023-12-20T12:42:39;15.70;83.20
60313;DHT22;46158;52.850;6.970;2023-12-20T12:45:05;15.70;83.20
60313;DHT22;46158;52.850;6.970;2023-12-20T12:47:31;15.70;83.20
60313;DHT22;46158;52.850;6.970;2023-12-20T12:49:56;15.70;83.30
60313;DHT22;46158;52.850;6.970;2023-12-20T12:52:22;15.70;83.10
60313;DHT22;46158;52.850;6.970;2023-12-20T12:54:48;15.70;83.00
60313;DHT22;46158;52.850;6.970;2023-12-20T12:57:14;15.70;82.90
60313;DHT22;46158;52.850;6.970;2023-12-20T12:59:41;15.70;82.90
60313;DHT22;46158;52.850;6.970;2023-12-20T13:02:07;15.70;82.90
60313;DHT22;46158;52.850;6.970;2023-12-20T13:04:33;15.70;82.80
60313;DHT22;46158;52.850;6.970;2023-12-20T13:06:59;15.70;82.70
60313;DHT22;46158;52.850;6.970;2023-12-20T13:09:25;15.70;82.70
60313;DHT22;46158;52.850;6.970;2023-12-20T13:11:50;15.70;82.60
60313;DHT22;46158;52.850;6.970;2023-12-20T13:14:16;15.70;82.50
60313;DHT22;46158;52.850;6.970;2023-12-20T13:16:42;15.70;82.40
60313;DHT22;46158;52.850;6.970;2023-12-20T13:19:08;15.70;82.30
60313;DHT22;46158;52.850;6.970;2023-12-20T13:21:35;15.70;82.30
60313;DHT22;46158;52.850;6.970;2023-12-20T13:24:01;15.70;82.20
60313;DHT22;46158;52.850;6.970;2023-12-20T13:26:26;15.70;82.20
60313;DHT22;46158;52.850;6.970;2023-12-20T13:28:53;15.70;82.10
60313;DHT22;46158;52.850;6.970;2023-12-20T13:31:19;15.70;82.10
60313;DHT22;46158;52.850;6.970;2023-12-20T13:33:45;15.70;82.10
60313;DHT22;46158;52.850;6.970;2023-12-20T13:36:11;15.70;82.10
60313;DHT22;46158;52.850;6.970;2023-12-20T13:38:37;15.60;82.10
60313;DHT22;46158;52.850;6.970;2023-12-20T13:41:03;15.70;82.10
60313;DHT22;46158;52.850;6.970;2023-12-20T13:43:30;15.70;82.10
60313;DHT22;46158;52.850;6.970;2023-12-20T13:45:57;15.70;82.00
60313;DHT22;46158;52.850;6.970;2023-12-20T13:48:22;15.70;82.00
60313;DHT22;46158;52.850;6.970;2023-12-20T13:50:48;15.60;81.90
60313;DHT22;46158;52.850;6.970;2023-12-20T13:53:13;15.60;81.90
60313;DHT22;46158;52.850;6.970;2023-12-20T13:55:39;15.60;81.90
60313;DHT22;46158;52.850;6.970;2023-12-20T13:58:05;15.70;81.90
60313;DHT22;46158;52.850;6.970;2023-12-20T14:00:31;15.60;81.80
60313;DHT22;46158;52.850;6.970;2023-12-20T14:02:56;15.70;81.70
60313;DHT22;46158;52.850;6.970;2023-12-20T14:05:22;15.60;81.60
60313;DHT22;46158;52.850;6.970;2023-12-20T14:07:48;15.60;81.70
60313;DHT22;46158;52.850;6.970;2023-12-20T14:10:14;15.60;81.80
60313;DHT22;46158;52.850;6.970;2023-12-20T14:12:40;15.70;81.90
60313;DHT22;46158;52.850;6.970;2023-12-20T14:15:06;15.60;81.80
60313;DHT22;46158;52.850;6.970;2023-12-20T14:17:40;15.60;81.90
60313;DHT22;46158;52.850;6.970;2023-12-20T14:20:08;15.60;81.90
60313;DHT22;46158;52.850;6.970;2023-12-20T14:22:34;15.60;81.30
60313;DHT22;46158;52.850;6.970;2023-12-20T14:25:00;15.60;81.40
60313;DHT22;46158;52.850;6.970;2023-12-20T14:27:26;15.60;81.40
60313;DHT22;46158;52.850;6.970;2023-12-20T14:29:54;15.50;81.40
60313;DHT22;46158;52.850;6.970;2023-12-20T14:32:19;15.60;81.50
60313;DHT22;46158;52.850;6.970;2023-12-20T14:34:46;15.50;81.50
60313;DHT22;46158;52.850;6.970;2023-12-20T14:37:12;15.60;81.60
60313;DHT22;46158;52.850;6.970;2023-12-20T14:39:37;15.60;81.60
60313;DHT22;46158;52.850;6.970;2023-12-20T14:42:10;15.60;81.60
60313;DHT22;46158;52.850;6.970;2023-12-20T14:44:42;15.50;81.60
60313;DHT22;46158;52.850;6.970;2023-12-20T14:47:07;15.60;81.70
60313;DHT22;46158;52.850;6.970;2023-12-20T14:49:33;15.50;81.70
60313;DHT22;46158;52.850;6.970;2023-12-20T14:51:59;15.60;81.80
60313;DHT22;46158;52.850;6.970;2023-12-20T14:54:25;15.60;81.90
60313;DHT22;46158;52.850;6.970;2023-12-20T14:56:51;15.60;81.90
60313;DHT22;46158;52.850;6.970;2023-12-20T14:59:16;15.50;82.00
60313;DHT22;46158;52.850;6.970;2023-12-20T15:01:43;15.60;82.10
60313;DHT22;46158;52.850;6.970;2023-12-20T15:04:09;15.60;82.10
60313;DHT22;46158;52.850;6.970;2023-12-20T15:06:36;15.60;82.10
60313;DHT22;46158;52.850;6.970;2023-12-20T15:09:01;15.50;82.10
60313;DHT22;46158;52.850;6.970;2023-12-20T15:11:31;15.50;82.10
60313;DHT22;46158;52.850;6.970;2023-12-20T15:13:57;15.60;82.20
60313;DHT22;46158;52.850;6.970;2023-12-20T15:16:24;15.60;82.30
60313;DHT22;46158;52.850;6.970;2023-12-20T15:18:50;15.60;82.30
60313;DHT22;46158;52.850;6.970;2023-12-20T15:21:16;15.50;83.00
60313;DHT22;46158;52.850;6.970;2023-12-20T15:23:42;15.60;82.40
60313;DHT22;46158;52.850;6.970;2023-12-20T15:26:34;15.50;82.30
60313;DHT22;46158;52.850;6.970;2023-12-20T15:29:00;15.60;82.50